createdAt,value
2023-02-03T00:04:42.618Z,98261.34
2023-02-03T00:09:45.982Z,98291.81
2023-02-03T00:14:49.590Z,98315.50
2023-02-03T00:19:52.960Z,98381.56
2023-02-03T00:24:57.322Z,98181.81
2023-02-03T00:30:00.903Z,98377.38
2023-02-03T00:35:13.977Z,98327.63
2023-02-03T00:40:17.590Z,98359.75
2023-02-03T00:45:21.295Z,98351.03
2023-02-03T00:50:25.151Z,98328.03
2023-02-03T00:55:28.948Z,98341.91
2023-02-03T01:00:32.674Z,98130.06
2023-02-03T01:05:37.044Z,98306.25
2023-02-03T01:10:40.782Z,98313.22
2023-02-03T01:15:48.991Z,98389.84
2023-02-03T01:20:52.694Z,98360.97
2023-02-03T01:25:56.124Z,98264.34
2023-02-03T01:31:16.529Z,98364.13
2023-02-03T01:36:19.918Z,98378.94
2023-02-03T01:41:26.730Z,98423.75
2023-02-03T01:46:45.935Z,98382.84
2023-02-03T01:51:50.379Z,98336.44
2023-02-03T01:57:01.992Z,98273.22
2023-02-03T02:02:09.093Z,98446.63
2023-02-03T02:07:13.587Z,98275.09
2023-02-03T02:12:28.326Z,98141.13
2023-02-03T02:17:47.700Z,98432.63
2023-02-03T02:23:29.689Z,98352.59
2023-02-03T02:29:04.180Z,98387.47
2023-02-03T02:34:32.648Z,98404.84
2023-02-03T02:39:48.141Z,98307.31
2023-02-03T02:45:06.177Z,98403.88
2023-02-03T02:50:15.394Z,98195.91
2023-02-03T02:55:28.646Z,98354.31
2023-02-03T03:00:35.087Z,98253.31
2023-02-03T03:05:39.847Z,98411.81
2023-02-03T03:10:44.615Z,98426.34
2023-02-03T03:15:51.355Z,98411.38
2023-02-03T03:20:59.139Z,98335.19
2023-02-03T03:26:14.233Z,98389.22
2023-02-03T03:31:20.157Z,98458.97
2023-02-03T03:36:30.237Z,98464.16
2023-02-03T03:41:47.998Z,98475.44
2023-02-03T03:47:04.670Z,98422.34
2023-02-03T03:52:11.731Z,98209.84
2023-02-03T03:57:27.841Z,98454.63
2023-02-03T04:02:33.689Z,98474.66
2023-02-03T04:07:49.206Z,98460.66
2023-02-03T04:12:52.600Z,98464.09
2023-02-03T04:17:57.857Z,98486.81
2023-02-03T04:23:01.505Z,98295.06
2023-02-03T04:28:15.106Z,98482.47
2023-02-03T04:33:18.685Z,98160.13
2023-02-03T04:38:32.350Z,98254.94
2023-02-03T04:43:35.708Z,98461.50
2023-02-03T04:48:40.234Z,98180.06
2023-02-03T04:53:53.738Z,98478.94
2023-02-03T04:58:57.195Z,98455.34
2023-02-03T05:04:00.598Z,98283.59
2023-02-03T05:09:04.549Z,98506.81
2023-02-03T05:14:08.355Z,98376.72
2023-02-03T05:19:12.289Z,98267.03
2023-02-03T05:24:15.869Z,98488.28
2023-02-03T05:29:19.742Z,98421.03
2023-02-03T05:34:23.155Z,98472.56
2023-02-03T05:39:31.801Z,98521.22
2023-02-03T05:44:45.433Z,98435.59
2023-02-03T05:49:58.798Z,98357.13
2023-02-03T05:55:02.134Z,98552.34
2023-02-03T06:00:08.146Z,98480.78
2023-02-03T06:05:22.729Z,98566.31
2023-02-03T06:10:26.560Z,98323.31
2023-02-03T06:15:31.009Z,98527.59
2023-02-03T06:20:35.536Z,98376.38
2023-02-03T06:25:45.710Z,98518.13
2023-02-03T06:30:57.321Z,98528.97
2023-02-03T06:36:04.981Z,98418.00
2023-02-03T06:41:08.397Z,98478.06
2023-02-03T06:46:13.337Z,98550.50
2023-02-03T06:51:27.060Z,98629.72
2023-02-03T06:56:30.998Z,98370.38
2023-02-03T07:01:34.621Z,98546.66
2023-02-03T07:06:38.317Z,98574.41
2023-02-03T07:11:41.811Z,98518.56
2023-02-03T07:16:45.820Z,98518.00
2023-02-03T07:21:49.448Z,98501.19
2023-02-03T07:26:54.141Z,98633.38
2023-02-03T07:31:58.031Z,98367.22
2023-02-03T07:37:01.912Z,98568.13
2023-02-03T07:42:05.556Z,98672.06
2023-02-03T07:47:12.661Z,98604.22
2023-02-03T07:52:22.345Z,98626.94
2023-02-03T07:57:25.759Z,98584.38
2023-02-03T08:02:29.275Z,98493.75
2023-02-03T08:07:32.926Z,98457.13
2023-02-03T08:12:36.662Z,98533.91
2023-02-03T08:17:45.283Z,98585.41
2023-02-03T08:22:58.965Z,98449.34
2023-02-03T08:28:02.723Z,98550.44
2023-02-03T08:33:16.280Z,98406.63
2023-02-03T08:38:20.392Z,98494.31
2023-02-03T08:43:23.901Z,98230.59
2023-02-03T08:48:27.312Z,98335.69
2023-02-03T08:53:30.718Z,98382.44
2023-02-03T08:58:34.282Z,98297.97
2023-02-03T09:03:38.411Z,98482.22
2023-02-03T09:08:42.403Z,98481.97
2023-02-03T09:13:49.793Z,98291.19
2023-02-03T09:18:53.286Z,98467.16
2023-02-03T09:23:56.997Z,98556.53
2023-02-03T09:29:01.094Z,98260.50
2023-02-03T09:34:07.767Z,98566.78
2023-02-03T09:39:11.252Z,98524.13
2023-02-03T09:44:27.410Z,98559.28
2023-02-03T09:49:46.095Z,98558.84
2023-02-03T09:55:01.721Z,98463.03
2023-02-03T10:00:17.924Z,98586.41
2023-02-03T10:05:41.989Z,98552.25
2023-02-03T10:11:13.408Z,98571.78
2023-02-03T10:16:43.191Z,98538.91
2023-02-03T10:21:57.920Z,98553.25
2023-02-03T10:27:01.422Z,98502.75
2023-02-03T10:32:13.468Z,98258.53
2023-02-03T10:37:46.010Z,98451.41
2023-02-03T10:43:09.219Z,98428.13
2023-02-03T10:48:24.247Z,98454.28
2023-02-03T10:53:34.919Z,98483.97
2023-02-03T10:58:40.060Z,98488.75
2023-02-03T11:03:59.985Z,98383.16
2023-02-03T11:09:22.849Z,98392.19
2023-02-03T11:14:26.330Z,98433.34
2023-02-03T11:19:30.892Z,98318.63
2023-02-03T11:24:46.214Z,98320.16
2023-02-03T11:30:15.759Z,98424.47
2023-02-03T11:35:24.046Z,98124.16
2023-02-03T11:40:35.351Z,98391.44
2023-02-03T11:46:09.387Z,98348.41
2023-02-03T11:51:46.850Z,98276.56
2023-02-03T11:57:17.109Z,98377.81
2023-02-03T12:03:04.846Z,98354.25
2023-02-03T12:08:36.412Z,98355.53
2023-02-03T12:13:46.153Z,98342.25
2023-02-03T12:19:11.124Z,98342.63
2023-02-03T12:24:54.096Z,98322.44
2023-02-03T12:30:06.500Z,98306.72
2023-02-03T12:35:26.155Z,98271.88
2023-02-03T12:40:44.079Z,98273.81
2023-02-03T12:46:05.580Z,98294.78
2023-02-03T12:51:16.062Z,98227.56
2023-02-03T12:56:29.792Z,98274.78
2023-02-03T13:02:04.302Z,98206.13
2023-02-03T13:07:10.423Z,98002.69
2023-02-03T13:12:23.187Z,98244.72
2023-02-03T13:17:29.028Z,98238.19
2023-02-03T13:22:33.277Z,97949.06
2023-02-03T13:28:00.924Z,98207.94
2023-02-03T13:33:29.061Z,98198.00
2023-02-03T13:38:57.821Z,98195.38
2023-02-03T13:44:02.710Z,98121.59
2023-02-03T13:49:09.826Z,98172.19
2023-02-03T13:54:28.872Z,98110.16
2023-02-03T13:59:38.548Z,98191.34
2023-02-03T14:04:48.121Z,98189.72
2023-02-03T14:10:10.669Z,98187.00
2023-02-03T14:15:27.708Z,98162.97
2023-02-03T14:20:49.803Z,98179.88
2023-02-03T14:25:57.692Z,98161.38
2023-02-03T14:31:13.365Z,98113.50
2023-02-03T14:36:29.189Z,98166.22
2023-02-03T14:42:05.700Z,98169.69
2023-02-03T14:47:31.971Z,98119.44
2023-02-03T14:53:02.360Z,98160.47
2023-02-03T14:58:17.144Z,98115.66
2023-02-03T15:03:23.634Z,98120.69
2023-02-03T15:08:44.232Z,98085.00
2023-02-03T15:13:47.984Z,98024.06
2023-02-03T15:18:57.330Z,98075.91
2023-02-03T15:24:01.087Z,98106.47
2023-02-03T15:29:05.872Z,97990.31
2023-02-03T15:34:16.655Z,98152.59
2023-02-03T15:39:47.020Z,97967.38
2023-02-03T15:45:30.100Z,98182.19
2023-02-03T15:50:43.032Z,98139.75
2023-02-03T15:55:50.683Z,98115.69
2023-02-03T16:01:10.903Z,98079.19
2023-02-03T16:06:41.426Z,98141.38
2023-02-03T16:12:26.265Z,98152.84
2023-02-03T16:17:38.042Z,98155.47
2023-02-03T16:23:00.740Z,98137.19
2023-02-03T16:28:32.087Z,98131.22
2023-02-03T16:33:55.833Z,98138.28
2023-02-03T16:39:22.079Z,98133.78
2023-02-03T16:44:49.166Z,98050.59
2023-02-03T16:50:10.980Z,98088.59
2023-02-03T16:55:14.480Z,98081.19
2023-02-03T17:00:19.502Z,97925.94
2023-02-03T17:05:22.838Z,98047.69
2023-02-03T17:10:26.466Z,98001.09
2023-02-03T17:15:30.362Z,98094.50
2023-02-03T17:20:36.094Z,98007.06
2023-02-03T17:25:40.356Z,97986.19
2023-02-03T17:30:43.942Z,98064.00
2023-02-03T17:35:47.381Z,98027.66
2023-02-03T17:56:58.448Z,97985.13
2023-02-03T18:02:02.367Z,98031.13
2023-02-03T18:07:06.268Z,97911.59
2023-02-03T18:12:09.606Z,97969.53
2023-02-03T18:17:12.958Z,98017.88
2023-02-03T18:22:16.729Z,98020.50
2023-02-03T18:27:21.049Z,98005.84
2023-02-03T18:32:24.404Z,98041.09
2023-02-03T18:37:28.097Z,98041.44
2023-02-03T18:42:31.486Z,97989.16
2023-02-03T18:47:34.994Z,98013.09
2023-02-03T18:52:38.872Z,97948.88
2023-02-03T18:57:42.219Z,98027.81
2023-02-03T19:02:48.987Z,97914.22
2023-02-03T19:07:52.454Z,97976.31
2023-02-03T19:13:05.810Z,98056.31
2023-02-03T19:18:09.256Z,97945.16
2023-02-03T19:23:13.382Z,98054.44
2023-02-03T19:28:20.283Z,97894.16
2023-02-03T19:33:31.904Z,97967.53
2023-02-03T19:38:36.087Z,97989.94
2023-02-03T19:43:40.825Z,97976.00
2023-02-03T19:48:44.314Z,98011.31
2023-02-03T19:53:47.694Z,98015.28
2023-02-03T19:58:58.030Z,97948.72
2023-02-03T20:04:01.601Z,97938.06
2023-02-03T20:09:06.958Z,98026.91
2023-02-03T20:14:10.511Z,98042.22
2023-02-03T20:19:14.228Z,97854.88
2023-02-03T20:24:18.121Z,97992.69
2023-02-03T20:29:21.713Z,97950.03
2023-02-03T20:34:28.216Z,98012.91
2023-02-03T20:39:31.824Z,98031.28
2023-02-03T20:44:35.269Z,97986.38
2023-02-03T20:49:50.266Z,97930.78
2023-02-03T20:54:53.968Z,97989.16
2023-02-03T20:59:57.700Z,97969.25
2023-02-03T21:05:03.453Z,97983.91
2023-02-03T21:10:19.033Z,97990.03
2023-02-03T21:15:34.005Z,97946.31
2023-02-03T21:20:37.486Z,97679.94
2023-02-03T21:25:40.932Z,97957.94
2023-02-03T21:30:44.529Z,97874.44
2023-02-03T21:35:47.961Z,97960.41
2023-02-03T21:40:51.402Z,97968.28
2023-02-03T21:45:54.966Z,97952.50
2023-02-03T21:51:13.132Z,97963.63
2023-02-03T21:56:20.316Z,97901.09
2023-02-03T22:01:26.400Z,97895.56
2023-02-03T22:06:42.737Z,97962.59
2023-02-03T22:11:47.459Z,97834.13
2023-02-03T22:16:51.445Z,97878.09
2023-02-03T22:21:55.241Z,97827.13
2023-02-03T22:27:01.072Z,97822.69
2023-02-03T22:32:04.880Z,97643.22
2023-02-03T22:37:08.455Z,97840.31
2023-02-03T22:42:12.007Z,97946.38
2023-02-03T22:47:15.633Z,97921.22
2023-02-03T22:52:19.505Z,97850.53
2023-02-03T22:57:34.190Z,97918.31
2023-02-03T23:02:48.710Z,97901.13
2023-02-03T23:08:02.818Z,97891.69
2023-02-03T23:13:06.560Z,97711.28
2023-02-03T23:18:10.144Z,97856.88
2023-02-03T23:23:15.396Z,97781.56
2023-02-03T23:28:19.051Z,97899.44
2023-02-03T23:33:26.114Z,97730.41
2023-02-03T23:38:29.571Z,97902.78
2023-02-03T23:43:33.447Z,97927.47
2023-02-03T23:48:37.174Z,97620.94
2023-02-03T23:53:40.883Z,97616.53
2023-02-03T23:58:44.445Z,97733.44
